Time;durP1;ratioP1;P1;durP2;ratioP2;P2;SDS_P1;SDS_P2;PMS_P1;PMS_P2;Temp;Humidity;BMP_temperature;BMP_pressure;BME280_temperature;BME280_humidity;BME280_pressure;Samples;Min_cycle;Max_cycle;Signal;HPM_P1;HPM_P2
2023/04/20 00:00:16;;;;;;;;;;;14.60;32.10;;;;;;5028760;28;19921;-62
2023/04/20 00:02:42;;;;;;;;;;;14.60;32.30;;;;;;5028285;28;19999;-61
2023/04/20 00:05:08;;;;;;;;;;;14.60;32.80;;;;;;5027254;28;20404;-62
2023/04/20 00:07:34;;;;;;;;;;;14.50;33.10;;;;;;5027974;28;19925;-61
2023/04/20 00:10:00;;;;;;;;;;;14.50;33.30;;;;;;5028639;28;20019;-62
2023/04/20 00:12:25;;;;;;;;;;;14.50;33.50;;;;;;5026892;28;20353;-64
2023/04/20 00:14:52;;;;;;;;;;;14.50;33.70;;;;;;5028777;28;19963;-61
2023/04/20 00:17:17;;;;;;;;;;;14.50;33.90;;;;;;5026645;28;19913;-62
2023/04/20 00:19:43;;;;;;;;;;;14.50;34.00;;;;;;5028063;28;20383;-61
2023/04/20 00:22:08;;;;;;;;;;;14.50;34.00;;;;;;5027644;28;19917;-62
2023/04/20 00:24:34;;;;;;;;;;;14.50;33.90;;;;;;5027806;28;20015;-63
2023/04/20 00:26:59;;;;;;;;;;;14.50;34.00;;;;;;5027895;28;19932;-62
2023/04/20 00:29:25;;;;;;;;;;;14.50;34.20;;;;;;5027103;28;20290;-62
2023/04/20 00:31:50;;;;;;;;;;;14.60;34.70;;;;;;5027557;28;20572;-62
2023/04/20 00:34:16;;;;;;;;;;;14.50;34.90;;;;;;5027798;28;19917;-62
2023/04/20 00:36:41;;;;;;;;;;;14.50;35.10;;;;;;5030728;28;20336;-62
2023/04/20 00:39:06;;;;;;;;;;;14.60;35.30;;;;;;5027592;28;19921;-62
2023/04/20 00:41:32;;;;;;;;;;;14.50;36.20;;;;;;5044620;28;20405;-62
2023/04/20 00:43:57;;;;;;;;;;;14.50;37.20;;;;;;5027844;28;19920;-62
2023/04/20 00:46:23;;;;;;;;;;;14.40;37.50;;;;;;5027423;28;19917;-63
2023/04/20 00:48:50;;;;;;;;;;;14.30;37.90;;;;;;5027430;28;19917;-62
2023/04/20 00:51:16;;;;;;;;;;;14.30;38.70;;;;;;5027930;28;19960;-61
2023/04/20 00:53:42;;;;;;;;;;;14.20;39.80;;;;;;5027712;28;19921;-62
2023/04/20 00:56:08;;;;;;;;;;;14.00;40.20;;;;;;5027155;28;19917;-61
2023/04/20 00:58:33;;;;;;;;;;;14.00;40.30;;;;;;5027385;28;20392;-61
2023/04/20 01:00:59;;;;;;;;;;;13.90;40.40;;;;;;5027168;28;20015;-62
2023/04/20 01:03:24;;;;;;;;;;;13.80;40.50;;;;;;5027172;28;19947;-61
2023/04/20 01:05:50;;;;;;;;;;;13.80;40.40;;;;;;5025573;28;19973;-61
2023/04/20 01:08:16;;;;;;;;;;;13.80;40.60;;;;;;5026925;28;19979;-61
2023/04/20 01:10:41;;;;;;;;;;;13.70;40.70;;;;;;5026882;28;19926;-61
2023/04/20 01:13:06;;;;;;;;;;;13.70;40.80;;;;;;5026331;28;20459;-63
2023/04/20 01:15:34;;;;;;;;;;;13.60;41.10;;;;;;5027452;28;19917;-62
2023/04/20 01:17:59;;;;;;;;;;;13.60;41.50;;;;;;5027121;28;19916;-62
2023/04/20 01:20:24;;;;;;;;;;;13.50;41.90;;;;;;5027195;28;19920;-62
2023/04/20 01:22:50;;;;;;;;;;;13.50;42.20;;;;;;5027009;28;20388;-62
2023/04/20 01:25:16;;;;;;;;;;;13.40;42.40;;;;;;5027406;28;19997;-62
2023/04/20 01:27:42;;;;;;;;;;;13.40;42.30;;;;;;5027244;28;20004;-62
2023/04/20 01:30:08;;;;;;;;;;;13.50;42.70;;;;;;5027492;28;20008;-62
2023/04/20 01:32:33;;;;;;;;;;;13.40;42.70;;;;;;5027191;28;19995;-62
2023/04/20 01:34:59;;;;;;;;;;;13.30;42.70;;;;;;5031767;28;19917;-62
2023/04/20 01:37:25;;;;;;;;;;;13.30;42.90;;;;;;5047282;28;19975;-63
2023/04/20 01:39:50;;;;;;;;;;;13.30;43.10;;;;;;5041276;28;19987;-61
2023/04/20 01:42:15;;;;;;;;;;;13.30;43.00;;;;;;5026638;28;19987;-61
2023/04/20 01:44:41;;;;;;;;;;;13.30;43.20;;;;;;5026362;28;19921;-61
2023/04/20 01:47:06;;;;;;;;;;;13.30;43.30;;;;;;5026861;28;19944;-61
2023/04/20 01:49:32;;;;;;;;;;;13.20;43.40;;;;;;5026909;28;19940;-61
2023/04/20 01:51:57;;;;;;;;;;;13.20;43.30;;;;;;5027136;28;20544;-61
2023/04/20 01:54:23;;;;;;;;;;;13.20;43.30;;;;;;5026905;28;20047;-64
2023/04/20 01:56:48;;;;;;;;;;;13.20;43.30;;;;;;5027055;28;20535;-61
2023/04/20 01:59:13;;;;;;;;;;;13.20;43.20;;;;;;5026962;28;19924;-61
2023/04/20 02:01:39;;;;;;;;;;;13.10;43.20;;;;;;5026562;28;19914;-61
2023/04/20 02:04:04;;;;;;;;;;;13.20;43.00;;;;;;5026097;28;20024;-60
2023/04/20 02:06:30;;;;;;;;;;;13.20;43.10;;;;;;5026568;28;19917;-60
2023/04/20 02:08:56;;;;;;;;;;;13.10;43.00;;;;;;5026829;28;20023;-61
2023/04/20 02:11:21;;;;;;;;;;;13.20;42.90;;;;;;5026342;28;20298;-61
2023/04/20 02:13:47;;;;;;;;;;;13.20;42.90;;;;;;5026518;28;19920;-60
2023/04/20 02:16:12;;;;;;;;;;;13.20;43.00;;;;;;5026298;28;19948;-60
2023/04/20 02:18:38;;;;;;;;;;;13.20;43.00;;;;;;5026593;28;20016;-61
2023/04/20 02:21:03;;;;;;;;;;;13.20;43.10;;;;;;5025850;28;19917;-64
2023/04/20 02:23:29;;;;;;;;;;;13.20;43.10;;;;;;5026280;28;20015;-64
2023/04/20 02:25:55;;;;;;;;;;;13.20;43.10;;;;;;5026274;28;19965;-61
2023/04/20 02:28:20;;;;;;;;;;;13.20;43.20;;;;;;5026420;28;19913;-61
2023/04/20 02:30:45;;;;;;;;;;;13.10;43.30;;;;;;5026319;28;19924;-60
2023/04/20 02:33:11;;;;;;;;;;;13.10;43.30;;;;;;5026313;28;19943;-61
2023/04/20 02:35:37;;;;;;;;;;;13.10;43.40;;;;;;5035120;28;19916;-65
2023/04/20 02:38:03;;;;;;;;;;;13.10;43.50;;;;;;5029894;28;20360;-62
2023/04/20 02:40:28;;;;;;;;;;;13.10;43.40;;;;;;5032612;28;19929;-61
2023/04/20 02:42:54;;;;;;;;;;;13.10;43.40;;;;;;5029981;28;19952;-61
2023/04/20 02:45:19;;;;;;;;;;;13.10;43.30;;;;;;5029285;28;19921;-61
2023/04/20 02:47:45;;;;;;;;;;;13.10;43.40;;;;;;5029296;28;20479;-62
2023/04/20 02:50:11;;;;;;;;;;;13.10;43.60;;;;;;5029957;28;19960;-61
2023/04/20 02:52:36;;;;;;;;;;;13.10;43.70;;;;;;5029147;28;19964;-61
2023/04/20 02:55:02;;;;;;;;;;;13.00;43.70;;;;;;5028055;28;20356;-60
2023/04/20 02:57:27;;;;;;;;;;;13.00;43.90;;;;;;5029076;28;19979;-63
2023/04/20 02:59:53;;;;;;;;;;;13.00;43.80;;;;;;5029736;28;19921;-63
2023/04/20 03:02:18;;;;;;;;;;;13.00;43.80;;;;;;5029091;28;19928;-60
2023/04/20 03:04:44;;;;;;;;;;;13.00;43.90;;;;;;5029580;28;19920;-61
2023/04/20 03:07:09;;;;;;;;;;;12.90;44.20;;;;;;5029708;28;19917;-61
2023/04/20 03:09:35;;;;;;;;;;;12.90;44.20;;;;;;5029407;28;20418;-61
2023/04/20 03:12:01;;;;;;;;;;;12.90;44.10;;;;;;5028895;28;19921;-62
2023/04/20 03:14:27;;;;;;;;;;;12.90;44.10;;;;;;5029418;28;19917;-62
2023/04/20 03:16:52;;;;;;;;;;;13.00;44.00;;;;;;5029178;28;19960;-62
2023/04/20 03:19:18;;;;;;;;;;;12.90;44.10;;;;;;5029066;28;19921;-62
2023/04/20 03:21:44;;;;;;;;;;;13.00;44.20;;;;;;5029444;28;19913;-62
2023/04/20 03:24:09;;;;;;;;;;;12.90;44.10;;;;;;5029439;28;19917;-62
2023/04/20 03:26:35;;;;;;;;;;;13.00;44.10;;;;;;5029557;28;19921;-62
2023/04/20 03:29:01;;;;;;;;;;;13.00;44.20;;;;;;5029419;28;19924;-62
2023/04/20 03:31:26;;;;;;;;;;;13.00;44.20;;;;;;5028983;28;19913;-62
2023/04/20 03:33:52;;;;;;;;;;;13.00;44.20;;;;;;5029285;28;19913;-62
2023/04/20 03:36:17;;;;;;;;;;;12.90;44.20;;;;;;5043882;28;19964;-62
2023/04/20 03:38:43;;;;;;;;;;;13.00;44.30;;;;;;5048627;28;19974;-62
2023/04/20 03:41:08;;;;;;;;;;;13.00;44.30;;;;;;5032213;28;20381;-62
2023/04/20 03:43:34;;;;;;;;;;;13.00;44.40;;;;;;5028211;28;20023;-61
2023/04/20 03:45:59;;;;;;;;;;;13.00;44.60;;;;;;5027962;28;19948;-62
2023/04/20 03:48:25;;;;;;;;;;;13.00;44.70;;;;;;5026859;28;20356;-62
2023/04/20 03:50:50;;;;;;;;;;;12.90;44.90;;;;;;5028304;28;19921;-64
2023/04/20 03:53:16;;;;;;;;;;;12.90;45.10;;;;;;5028085;28;20237;-63
2023/04/20 03:55:41;;;;;;;;;;;12.80;45.20;;;;;;5028355;28;20003;-62
2023/04/20 03:58:07;;;;;;;;;;;12.80;45.20;;;;;;5028247;28;19917;-62
2023/04/20 04:00:33;;;;;;;;;;;12.80;45.30;;;;;;5027982;28;19971;-63
2023/04/20 04:02:58;;;;;;;;;;;12.80;45.50;;;;;;5028042;28;19917;-62
2023/04/20 04:05:24;;;;;;;;;;;12.80;45.50;;;;;;5027755;28;19968;-62
2023/04/20 04:07:50;;;;;;;;;;;12.80;45.60;;;;;;5016283;28;19913;-64
2023/04/20 04:10:17;;;;;;;;;;;12.80;45.50;;;;;;5033508;28;19944;-62
2023/04/20 04:12:44;;;;;;;;;;;12.80;45.60;;;;;;5032117;28;19939;-62
2023/04/20 04:15:09;;;;;;;;;;;12.80;45.80;;;;;;5041007;28;19921;-62
2023/04/20 04:17:35;;;;;;;;;;;12.70;46.00;;;;;;5031499;28;19925;-62
2023/04/20 04:20:00;;;;;;;;;;;12.70;46.10;;;;;;5027880;28;20327;-61
2023/04/20 04:22:26;;;;;;;;;;;12.70;46.20;;;;;;5028133;28;20399;-61
2023/04/20 04:24:53;;;;;;;;;;;12.70;46.50;;;;;;5028339;28;19956;-65
2023/04/20 04:27:19;;;;;;;;;;;12.70;46.60;;;;;;5040248;28;19913;-62
2023/04/20 04:29:45;;;;;;;;;;;12.60;46.80;;;;;;5048049;28;19913;-62
2023/04/20 04:32:11;;;;;;;;;;;12.60;46.90;;;;;;5028682;28;19943;-65
2023/04/20 04:34:37;;;;;;;;;;;12.60;47.00;;;;;;5028949;28;20383;-62
2023/04/20 04:37:02;;;;;;;;;;;12.60;47.30;;;;;;5047786;28;19913;-62
2023/04/20 04:39:29;;;;;;;;;;;12.50;47.60;;;;;;5035455;28;19920;-62
2023/04/20 04:41:54;;;;;;;;;;;12.50;47.80;;;;;;5028222;28;20101;-62
2023/04/20 04:44:20;;;;;;;;;;;12.50;47.80;;;;;;5027348;28;19930;-62
2023/04/20 04:46:46;;;;;;;;;;;12.50;48.00;;;;;;5027941;28;19913;-62
2023/04/20 04:49:11;;;;;;;;;;;12.40;48.40;;;;;;5027649;28;19988;-62
2023/04/20 04:51:37;;;;;;;;;;;12.40;48.40;;;;;;5027759;28;20441;-64
2023/04/20 04:54:02;;;;;;;;;;;12.40;48.50;;;;;;5027685;28;19917;-61
2023/04/20 04:56:28;;;;;;;;;;;12.40;48.60;;;;;;5027794;28;19967;-62
2023/04/20 04:58:53;;;;;;;;;;;12.40;48.80;;;;;;5026581;28;19917;-62
2023/04/20 05:01:19;;;;;;;;;;;12.40;48.90;;;;;;5027326;28;19928;-62
2023/04/20 05:03:45;;;;;;;;;;;12.40;49.00;;;;;;5029040;28;19916;-62
2023/04/20 05:06:10;;;;;;;;;;;12.40;49.00;;;;;;5027185;28;19928;-63
2023/04/20 05:08:36;;;;;;;;;;;12.40;49.00;;;;;;5027290;28;19921;-62
2023/04/20 05:11:01;;;;;;;;;;;12.40;49.00;;;;;;5027239;28;19921;-62
2023/04/20 05:13:27;;;;;;;;;;;12.40;48.90;;;;;;5027310;28;19919;-62
2023/04/20 05:15:52;;;;;;;;;;;12.50;48.80;;;;;;5027332;28;19923;-62
2023/04/20 05:18:18;;;;;;;;;;;12.50;48.70;;;;;;5027502;28;20276;-61
2023/04/20 05:20:43;;;;;;;;;;;12.50;48.70;;;;;;5027215;28;19916;-62
2023/04/20 05:23:09;;;;;;;;;;;12.60;48.60;;;;;;5027338;28;19971;-61
2023/04/20 05:25:34;;;;;;;;;;;12.60;48.50;;;;;;5025937;28;20339;-61
2023/04/20 05:28:00;;;;;;;;;;;12.70;48.40;;;;;;5027206;28;19948;-61
2023/04/20 05:30:25;;;;;;;;;;;12.70;48.50;;;;;;5027290;28;20024;-61
2023/04/20 05:32:51;;;;;;;;;;;12.70;48.40;;;;;;5027568;28;20347;-62
2023/04/20 05:35:16;;;;;;;;;;;12.70;48.50;;;;;;5033477;28;19918;-65
2023/04/20 05:37:42;;;;;;;;;;;12.70;48.50;;;;;;5045478;28;19912;-62
2023/04/20 05:40:08;;;;;;;;;;;12.70;48.40;;;;;;5026981;28;19921;-63
2023/04/20 05:42:33;;;;;;;;;;;12.70;48.40;;;;;;5027504;28;20297;-62
2023/04/20 05:44:59;;;;;;;;;;;12.70;48.30;;;;;;5027478;28;20012;-62
2023/04/20 05:47:26;;;;;;;;;;;12.80;48.30;;;;;;5027102;28;20373;-63
2023/04/20 05:49:52;;;;;;;;;;;12.80;48.20;;;;;;5027749;28;19921;-64
2023/04/20 05:52:17;;;;;;;;;;;12.80;48.20;;;;;;5027039;28;20221;-63
2023/04/20 05:54:43;;;;;;;;;;;12.80;48.10;;;;;;5026983;28;19928;-63
2023/04/20 05:57:08;;;;;;;;;;;12.80;48.20;;;;;;5026984;28;19913;-62
2023/04/20 05:59:33;;;;;;;;;;;12.80;48.10;;;;;;5027043;28;20453;-62
2023/04/20 06:01:59;;;;;;;;;;;12.90;48.10;;;;;;5018815;28;19975;-61
2023/04/20 06:04:25;;;;;;;;;;;12.90;48.10;;;;;;5007641;28;19914;-64
2023/04/20 06:06:50;;;;;;;;;;;12.90;48.10;;;;;;5018278;28;19917;-62
2023/04/20 06:09:16;;;;;;;;;;;12.90;48.10;;;;;;5027177;28;20270;-62
2023/04/20 06:11:41;;;;;;;;;;;13.00;48.10;;;;;;5026734;28;19925;-62
2023/04/20 06:14:07;;;;;;;;;;;13.00;48.00;;;;;;5031073;28;19960;-62
2023/04/20 06:16:32;;;;;;;;;;;13.00;47.90;;;;;;5029525;28;19924;-60
2023/04/20 06:18:58;;;;;;;;;;;13.00;47.90;;;;;;5030860;28;19913;-61
2023/04/20 06:21:23;;;;;;;;;;;13.00;47.90;;;;;;5030356;28;19917;-61
2023/04/20 06:23:49;;;;;;;;;;;12.90;48.00;;;;;;5030071;28;19935;-61
2023/04/20 06:26:14;;;;;;;;;;;12.90;48.00;;;;;;5027274;28;19913;-61
2023/04/20 06:28:40;;;;;;;;;;;13.00;48.10;;;;;;5028467;28;20169;-61
2023/04/20 06:31:06;;;;;;;;;;;12.90;48.00;;;;;;5026235;28;19939;-60
2023/04/20 06:33:32;;;;;;;;;;;12.90;48.00;;;;;;5030138;28;20274;-61
2023/04/20 06:35:57;;;;;;;;;;;12.90;48.10;;;;;;5030200;28;19921;-61
2023/04/20 06:38:24;;;;;;;;;;;12.90;48.10;;;;;;5026822;28;19995;-60
2023/04/20 06:40:49;;;;;;;;;;;12.90;48.10;;;;;;5010768;28;19948;-61
2023/04/20 06:43:15;;;;;;;;;;;12.90;48.10;;;;;;5025416;28;19920;-60
2023/04/20 06:45:40;;;;;;;;;;;12.90;48.00;;;;;;5012781;28;20677;-61
2023/04/20 06:48:06;;;;;;;;;;;12.90;48.10;;;;;;5018018;28;20296;-61
2023/04/20 06:50:31;;;;;;;;;;;12.80;48.30;;;;;;5029363;28;19921;-61
2023/04/20 06:52:57;;;;;;;;;;;12.90;48.20;;;;;;5014405;28;19917;-62
2023/04/20 06:55:22;;;;;;;;;;;13.00;48.20;;;;;;5022676;28;20293;-62
2023/04/20 06:57:48;;;;;;;;;;;13.00;48.10;;;;;;5028975;28;20425;-61
2023/04/20 07:00:13;;;;;;;;;;;13.10;47.90;;;;;;5030027;28;20342;-62
2023/04/20 07:02:43;;;;;;;;;;;13.10;47.90;;;;;;5025814;28;19917;-62
2023/04/20 07:05:09;;;;;;;;;;;13.20;47.60;;;;;;5029965;28;19921;-62
2023/04/20 07:07:34;;;;;;;;;;;13.20;47.60;;;;;;5029171;28;19916;-62
2023/04/20 07:10:00;;;;;;;;;;;13.20;47.60;;;;;;5029887;28;19914;-60
2023/04/20 07:12:25;;;;;;;;;;;13.30;47.60;;;;;;5029669;28;19917;-61
2023/04/20 07:14:50;;;;;;;;;;;13.30;47.30;;;;;;5029878;28;20356;-61
2023/04/20 07:17:16;;;;;;;;;;;13.40;47.10;;;;;;5029529;28;20384;-61
2023/04/20 07:19:41;;;;;;;;;;;13.40;47.00;;;;;;5029618;28;20418;-61
2023/04/20 07:22:07;;;;;;;;;;;13.50;46.90;;;;;;5029581;28;19917;-60
2023/04/20 07:24:32;;;;;;;;;;;13.60;46.90;;;;;;5028171;28;19913;-61
2023/04/20 07:26:58;;;;;;;;;;;13.70;46.70;;;;;;5029283;28;19917;-60
2023/04/20 07:29:23;;;;;;;;;;;13.80;46.50;;;;;;5029103;28;20300;-61
2023/04/20 07:31:48;;;;;;;;;;;13.90;46.40;;;;;;5017638;28;19917;-61
2023/04/20 07:34:14;;;;;;;;;;;14.00;46.10;;;;;;5028489;28;19917;-61
2023/04/20 07:36:40;;;;;;;;;;;14.20;45.60;;;;;;5033821;28;20399;-62
2023/04/20 07:39:05;;;;;;;;;;;14.20;45.30;;;;;;5022255;28;20308;-61
2023/04/20 07:41:31;;;;;;;;;;;14.20;45.30;;;;;;5028819;28;19921;-61
2023/04/20 07:43:56;;;;;;;;;;;14.30;45.40;;;;;;5012796;28;19917;-62
2023/04/20 07:46:22;;;;;;;;;;;14.40;45.20;;;;;;5018645;28;20402;-61
2023/04/20 07:48:47;;;;;;;;;;;14.40;44.90;;;;;;5029305;28;19913;-61
2023/04/20 07:51:13;;;;;;;;;;;14.50;44.80;;;;;;5028796;28;19913;-61
2023/04/20 07:53:38;;;;;;;;;;;14.60;44.50;;;;;;5029354;28;19913;-61
2023/04/20 07:56:04;;;;;;;;;;;14.70;44.40;;;;;;5029284;28;19925;-61
2023/04/20 07:58:29;;;;;;;;;;;14.70;44.20;;;;;;5029050;28;19959;-61
2023/04/20 08:00:55;;;;;;;;;;;14.80;44.00;;;;;;5042848;28;19929;-61
2023/04/20 08:03:20;;;;;;;;;;;15.00;43.70;;;;;;5028763;28;20376;-60
2023/04/20 08:05:46;;;;;;;;;;;15.20;43.40;;;;;;5028656;28;19913;-61
2023/04/20 08:08:11;;;;;;;;;;;15.30;43.10;;;;;;5032706;28;19924;-62
2023/04/20 08:10:36;;;;;;;;;;;15.50;42.80;;;;;;5030454;28;20004;-63
2023/04/20 08:13:02;;;;;;;;;;;15.70;41.90;;;;;;5025985;28;19913;-62
2023/04/20 08:15:28;;;;;;;;;;;15.70;41.60;;;;;;5025805;28;19925;-62
2023/04/20 08:17:53;;;;;;;;;;;15.70;41.30;;;;;;5027136;28;20383;-62
2023/04/20 08:20:19;;;;;;;;;;;15.60;41.10;;;;;;5021065;28;19925;-60
2023/04/20 08:22:44;;;;;;;;;;;15.50;41.10;;;;;;5024838;28;19917;-61
2023/04/20 08:25:10;;;;;;;;;;;15.50;40.90;;;;;;5015266;28;19928;-62
2023/04/20 08:27:35;;;;;;;;;;;15.50;41.10;;;;;;5028245;28;19917;-63
2023/04/20 08:30:03;;;;;;;;;;;15.60;40.90;;;;;;5027240;28;19936;-62
2023/04/20 08:32:28;;;;;;;;;;;15.60;41.10;;;;;;5027758;28;19983;-62
2023/04/20 08:34:54;;;;;;;;;;;15.70;41.10;;;;;;5029822;28;19952;-62
2023/04/20 08:37:20;;;;;;;;;;;15.70;40.90;;;;;;5028212;28;19916;-62
2023/04/20 08:39:45;;;;;;;;;;;15.70;40.90;;;;;;5026655;28;19927;-64
2023/04/20 08:42:11;;;;;;;;;;;15.60;40.20;;;;;;5026783;28;20577;-62
2023/04/20 08:44:36;;;;;;;;;;;15.60;39.80;;;;;;5022802;28;19914;-62
2023/04/20 08:47:02;;;;;;;;;;;15.60;39.60;;;;;;5019681;28;19924;-62
2023/04/20 08:49:31;;;;;;;;;;;15.50;39.50;;;;;;5027900;28;19968;-62
2023/04/20 08:51:57;;;;;;;;;;;15.50;39.70;;;;;;5028072;28;20479;-62
2023/04/20 08:54:22;;;;;;;;;;;15.70;39.60;;;;;;5028296;28;19964;-63
2023/04/20 08:56:47;;;;;;;;;;;15.90;39.00;;;;;;5028045;28;19913;-61
2023/04/20 08:59:16;;;;;;;;;;;15.90;38.80;;;;;;5026763;28;20349;-61
2023/04/20 09:01:42;;;;;;;;;;;15.90;38.90;;;;;;5024389;28;19921;-61
2023/04/20 09:04:17;;;;;;;;;;;16.10;38.90;;;;;;5017199;28;19917;-61
2023/04/20 09:06:44;;;;;;;;;;;16.20;38.40;;;;;;5015329;28;20065;-61
2023/04/20 09:09:10;;;;;;;;;;;16.20;38.30;;;;;;5026244;28;20392;-63
2023/04/20 09:11:36;;;;;;;;;;;16.30;38.30;;;;;;5027654;28;19936;-61
2023/04/20 09:14:03;;;;;;;;;;;16.60;37.80;;;;;;5010635;28;20035;-61
2023/04/20 09:16:30;;;;;;;;;;;16.80;37.70;;;;;;5007647;28;19918;-61
2023/04/20 09:18:55;;;;;;;;;;;17.20;37.60;;;;;;5023093;28;19913;-61
2023/04/20 09:21:22;;;;;;;;;;;17.40;36.50;;;;;;5025939;28;20352;-61
2023/04/20 09:23:59;;;;;;;;;;;17.70;36.10;;;;;;5007970;28;19914;-62
2023/04/20 09:26:25;;;;;;;;;;;17.90;35.50;;;;;;5007657;28;19921;-62
2023/04/20 09:28:51;;;;;;;;;;;18.30;35.30;;;;;;5014475;28;19917;-62
2023/04/20 09:31:20;;;;;;;;;;;18.60;34.80;;;;;;5026427;28;19924;-61
2023/04/20 09:33:55;;;;;;;;;;;18.80;34.60;;;;;;5007484;28;19914;-62
2023/04/20 09:36:21;;;;;;;;;;;18.90;34.00;;;;;;5035852;28;19913;-62
2023/04/20 09:38:46;;;;;;;;;;;19.40;34.10;;;;;;5026745;28;20336;-62
2023/04/20 09:41:13;;;;;;;;;;;19.60;33.10;;;;;;5027032;28;20339;-62
2023/04/20 09:43:39;;;;;;;;;;;19.70;32.60;;;;;;5012822;28;19913;-62
2023/04/20 09:46:04;;;;;;;;;;;19.70;32.40;;;;;;5011477;28;19991;-61
2023/04/20 09:48:33;;;;;;;;;;;19.50;32.10;;;;;;5027697;28;20365;-62
2023/04/20 09:51:00;;;;;;;;;;;19.10;32.40;;;;;;5030348;28;19921;-63
2023/04/20 09:53:26;;;;;;;;;;;18.90;32.90;;;;;;5021925;28;19920;-62
2023/04/20 09:55:51;;;;;;;;;;;18.90;32.90;;;;;;5011239;28;20301;-62
2023/04/20 09:58:18;;;;;;;;;;;19.10;33.20;;;;;;5027315;28;19917;-62
2023/04/20 10:00:43;;;;;;;;;;;19.50;33.00;;;;;;5029192;28;19968;-62
2023/04/20 10:03:09;;;;;;;;;;;20.00;32.80;;;;;;5030602;28;20420;-62
2023/04/20 10:05:36;;;;;;;;;;;20.60;31.40;;;;;;5031403;28;19948;-62
2023/04/20 10:08:02;;;;;;;;;;;20.70;30.50;;;;;;5037474;28;19939;-62
2023/04/20 10:10:28;;;;;;;;;;;20.50;30.10;;;;;;5032444;28;19924;-62
2023/04/20 10:13:02;;;;;;;;;;;20.20;30.20;;;;;;5026164;28;20288;-63
2023/04/20 10:15:37;;;;;;;;;;;19.90;30.70;;;;;;5024974;28;19999;-62
2023/04/20 10:18:15;;;;;;;;;;;19.70;30.90;;;;;;5023497;28;19909;-62
2023/04/20 10:20:40;;;;;;;;;;;19.40;30.90;;;;;;5030266;28;19921;-62
2023/04/20 10:23:08;;;;;;;;;;;19.30;31.10;;;;;;5039970;28;19947;-63
2023/04/20 10:25:33;;;;;;;;;;;19.40;31.50;;;;;;5030293;28;19986;-62
2023/04/20 10:28:03;;;;;;;;;;;19.30;31.00;;;;;;5029747;28;19909;-63
2023/04/20 10:30:29;;;;;;;;;;;19.20;31.10;;;;;;5030574;28;19936;-62
2023/04/20 10:33:08;;;;;;;;;;;19.10;31.00;;;;;;5021184;28;19913;-62
2023/04/20 10:36:03;;;;;;;;;;;19.00;31.20;;;;;;5028886;28;20666;-61
2023/04/20 10:38:29;;;;;;;;;;;19.00;31.30;;;;;;5030187;28;19913;-62
2023/04/20 10:40:55;;;;;;;;;;;18.80;31.00;;;;;;5030046;28;20292;-62
2023/04/20 10:43:21;;;;;;;;;;;18.90;31.20;;;;;;5029895;28;20059;-62
2023/04/20 10:45:47;;;;;;;;;;;19.00;31.10;;;;;;5018637;28;19918;-62
2023/04/20 10:48:12;;;;;;;;;;;19.10;31.20;;;;;;5029720;28;19917;-62
2023/04/20 10:50:38;;;;;;;;;;;19.20;31.20;;;;;;5028524;28;19940;-62
2023/04/20 10:53:04;;;;;;;;;;;19.30;31.30;;;;;;5013719;28;20282;-61
2023/04/20 10:55:29;;;;;;;;;;;19.50;30.90;;;;;;5028295;28;19968;-62
2023/04/20 10:57:55;;;;;;;;;;;19.50;30.50;;;;;;5029091;28;19917;-61
2023/04/20 11:00:22;;;;;;;;;;;19.30;31.10;;;;;;5027264;28;20313;-61
2023/04/20 11:02:49;;;;;;;;;;;19.30;31.20;;;;;;5029411;28;19951;-62
2023/04/20 11:05:14;;;;;;;;;;;19.40;30.90;;;;;;5028499;28;19924;-61
2023/04/20 11:07:53;;;;;;;;;;;19.50;31.10;;;;;;5030057;28;19913;-61
2023/04/20 11:10:19;;;;;;;;;;;19.50;31.20;;;;;;5028161;28;20004;-61
2023/04/20 11:12:45;;;;;;;;;;;19.40;31.10;;;;;;5029555;28;19973;-61
2023/04/20 11:15:10;;;;;;;;;;;19.40;31.20;;;;;;5015058;28;20062;-62
2023/04/20 11:17:36;;;;;;;;;;;19.40;31.20;;;;;;5029281;28;20332;-62
2023/04/20 11:20:09;;;;;;;;;;;19.40;31.40;;;;;;5029218;28;19943;-61
2023/04/20 11:22:36;;;;;;;;;;;19.50;31.40;;;;;;5029507;28;19960;-61
2023/04/20 11:25:04;;;;;;;;;;;19.80;31.10;;;;;;5038630;28;19982;-61
2023/04/20 11:27:30;;;;;;;;;;;20.10;30.60;;;;;;5048962;28;19913;-61
2023/04/20 11:30:03;;;;;;;;;;;20.10;29.90;;;;;;5015813;28;19923;-62
2023/04/20 11:32:29;;;;;;;;;;;20.00;29.90;;;;;;5008895;28;20260;-61
2023/04/20 11:35:06;;;;;;;;;;;19.90;29.80;;;;;;5016923;28;19920;-61
2023/04/20 11:37:32;;;;;;;;;;;19.90;30.10;;;;;;5043351;28;20356;-61
2023/04/20 11:40:06;;;;;;;;;;;19.90;30.20;;;;;;5044342;28;20329;-62
2023/04/20 11:42:31;;;;;;;;;;;19.90;30.00;;;;;;5032368;28;20028;-61
2023/04/20 11:44:57;;;;;;;;;;;19.80;30.00;;;;;;5029038;28;20082;-62
2023/04/20 11:47:23;;;;;;;;;;;19.80;30.10;;;;;;5027590;28;19928;-61
2023/04/20 11:49:48;;;;;;;;;;;19.80;30.30;;;;;;5029246;28;20288;-61
2023/04/20 11:52:14;;;;;;;;;;;19.80;30.40;;;;;;5015543;28;20337;-63
2023/04/20 11:54:40;;;;;;;;;;;19.80;30.30;;;;;;5010666;28;20246;-61
2023/04/20 11:57:06;;;;;;;;;;;19.60;30.40;;;;;;5017474;28;20360;-61
2023/04/20 11:59:31;;;;;;;;;;;19.40;30.70;;;;;;5028913;28;20533;-61
2023/04/20 12:01:57;;;;;;;;;;;19.30;30.80;;;;;;5041361;28;20368;-61
2023/04/20 12:04:22;;;;;;;;;;;19.20;31.10;;;;;;5048783;28;19913;-61
2023/04/20 12:06:48;;;;;;;;;;;19.20;31.40;;;;;;5028130;28;19921;-62
2023/04/20 12:09:14;;;;;;;;;;;19.20;31.40;;;;;;5026125;28;19913;-61
2023/04/20 12:11:39;;;;;;;;;;;19.20;31.40;;;;;;5027182;28;20408;-62
2023/04/20 12:14:05;;;;;;;;;;;19.30;31.40;;;;;;5028513;28;19913;-61
2023/04/20 12:16:30;;;;;;;;;;;19.30;31.00;;;;;;5027141;28;19917;-61
2023/04/20 12:18:56;;;;;;;;;;;19.30;31.10;;;;;;5024288;28;20373;-62
2023/04/20 12:21:21;;;;;;;;;;;19.50;30.50;;;;;;5008705;28;19972;-61
2023/04/20 12:23:48;;;;;;;;;;;19.80;30.10;;;;;;5019353;28;20306;-61
2023/04/20 12:26:14;;;;;;;;;;;20.00;29.30;;;;;;5026624;28;19921;-62
2023/04/20 12:28:39;;;;;;;;;;;20.30;29.00;;;;;;5026879;28;19997;-62
2023/04/20 12:31:05;;;;;;;;;;;20.50;29.00;;;;;;5027822;28;19917;-62
2023/04/20 12:33:30;;;;;;;;;;;20.60;28.30;;;;;;5021307;28;20374;-61
2023/04/20 12:35:55;;;;;;;;;;;20.40;28.50;;;;;;5033764;28;20414;-61
2023/04/20 12:38:21;;;;;;;;;;;20.40;28.70;;;;;;5047602;28;19920;-64
2023/04/20 12:40:46;;;;;;;;;;;20.50;28.40;;;;;;5027746;28;19935;-61
2023/04/20 12:43:12;;;;;;;;;;;20.40;28.50;;;;;;5018655;28;20234;-61
2023/04/20 12:45:37;;;;;;;;;;;20.40;28.50;;;;;;5013687;28;20011;-62
2023/04/20 12:48:03;;;;;;;;;;;20.30;28.60;;;;;;5027800;28;20062;-61
2023/04/20 12:50:28;;;;;;;;;;;20.10;28.70;;;;;;5026961;28;19924;-61
2023/04/20 12:52:57;;;;;;;;;;;19.80;29.20;;;;;;5027896;28;19913;-62
2023/04/20 12:55:23;;;;;;;;;;;19.50;29.70;;;;;;5026523;28;19921;-61
2023/04/20 12:57:48;;;;;;;;;;;19.30;30.00;;;;;;5042944;28;19916;-62
2023/04/20 13:00:14;;;;;;;;;;;19.20;30.00;;;;;;5026797;28;19943;-61
2023/04/20 13:02:40;;;;;;;;;;;19.70;29.90;;;;;;5027341;28;19913;-61
2023/04/20 13:05:05;;;;;;;;;;;19.90;29.70;;;;;;5026613;28;20403;-62
2023/04/20 13:07:31;;;;;;;;;;;20.30;29.50;;;;;;5027990;28;19940;-61
2023/04/20 13:09:57;;;;;;;;;;;20.40;29.20;;;;;;5026634;28;20011;-61
2023/04/20 13:12:22;;;;;;;;;;;20.70;29.30;;;;;;5027307;28;19964;-62
2023/04/20 13:14:47;;;;;;;;;;;21.20;27.60;;;;;;5026416;28;19913;-61
2023/04/20 13:17:13;;;;;;;;;;;20.70;28.00;;;;;;5026465;28;19913;-62
2023/04/20 13:19:39;;;;;;;;;;;20.90;28.30;;;;;;5027250;28;19921;-60
2023/04/20 13:22:04;;;;;;;;;;;21.40;27.50;;;;;;5027143;28;20404;-61
2023/04/20 13:24:30;;;;;;;;;;;21.70;27.20;;;;;;5009131;28;19940;-60
2023/04/20 13:26:55;;;;;;;;;;;21.70;26.50;;;;;;5018417;28;19921;-61
2023/04/20 13:29:21;;;;;;;;;;;21.80;26.60;;;;;;5021115;28;20357;-60
2023/04/20 13:31:47;;;;;;;;;;;21.90;26.30;;;;;;5027296;28;19917;-61
2023/04/20 13:34:12;;;;;;;;;;;22.10;26.20;;;;;;5010310;28;20098;-61
2023/04/20 13:36:38;;;;;;;;;;;22.20;25.90;;;;;;5029892;28;19952;-63
2023/04/20 13:39:03;;;;;;;;;;;22.00;26.00;;;;;;5027200;28;19921;-62
2023/04/20 13:41:30;;;;;;;;;;;21.70;26.20;;;;;;5017091;28;21440;-61
2023/04/20 13:43:56;;;;;;;;;;;21.50;26.00;;;;;;5007645;28;20379;-63
2023/04/20 13:46:22;;;;;;;;;;;21.50;26.20;;;;;;5014156;28;19925;-62
2023/04/20 13:48:47;;;;;;;;;;;21.50;26.10;;;;;;5027211;28;19920;-62
2023/04/20 13:51:12;;;;;;;;;;;21.70;26.10;;;;;;5025988;28;19965;-61
2023/04/20 13:53:38;;;;;;;;;;;21.80;26.50;;;;;;5027049;28;19913;-62
2023/04/20 13:56:04;;;;;;;;;;;21.70;26.40;;;;;;5020799;28;19914;-64
2023/04/20 13:58:29;;;;;;;;;;;21.50;26.70;;;;;;5008009;28;19914;-62
2023/04/20 14:00:55;;;;;;;;;;;21.20;27.10;;;;;;5007089;28;19921;-62
2023/04/20 14:03:20;;;;;;;;;;;20.80;27.60;;;;;;5006858;28;19924;-62
2023/04/20 14:05:45;;;;;;;;;;;20.50;28.20;;;;;;5006920;28;19918;-62
2023/04/20 14:08:12;;;;;;;;;;;20.30;27.60;;;;;;5006826;28;19948;-62